createdAt,value
2022-08-04T00:01:53.863Z,45.14
2022-08-04T00:04:38.981Z,45.04
2022-08-04T00:07:19.558Z,44.37
2022-08-04T00:10:07.508Z,45.06
2022-08-04T00:12:42.424Z,44.96
2022-08-04T00:15:14.861Z,46.19
2022-08-04T00:17:59.669Z,44.83
2022-08-04T00:20:32.023Z,45.38
2022-08-04T00:23:00.300Z,46.02
2022-08-04T00:25:27.754Z,46.17
2022-08-04T00:27:55.479Z,45.91
2022-08-04T00:30:22.364Z,45.79
2022-08-04T00:32:49.678Z,45.83
2022-08-04T00:35:16.998Z,45.84
2022-08-04T00:37:47.378Z,46.02
2022-08-04T00:40:24.132Z,46.26
2022-08-04T00:43:21.102Z,46.02
2022-08-04T00:46:15.503Z,47.12
2022-08-04T00:48:53.417Z,46.99
2022-08-04T00:51:33.382Z,46.26
2022-08-04T00:54:10.907Z,46.69
2022-08-04T00:57:29.897Z,47.14
2022-08-04T01:00:13.235Z,46.48
2022-08-04T01:02:49.824Z,46.86
2022-08-04T01:05:38.010Z,46.48
2022-08-04T01:08:29.898Z,46.67
2022-08-04T01:11:05.528Z,46.80
2022-08-04T01:13:47.091Z,47.45
2022-08-04T01:16:17.445Z,47.60
2022-08-04T01:18:53.117Z,46.96
2022-08-04T01:21:51.369Z,47.24
2022-08-04T01:24:17.901Z,47.09
2022-08-04T01:26:57.761Z,47.36
2022-08-04T01:29:41.556Z,47.64
2022-08-04T01:33:28.027Z,47.41
2022-08-04T01:36:04.836Z,47.29
2022-08-04T01:38:36.649Z,47.62
2022-08-04T01:41:08.097Z,47.66
2022-08-04T01:43:41.063Z,47.43
2022-08-04T01:46:11.730Z,48.01
2022-08-04T01:48:39.815Z,48.02
2022-08-04T01:51:08.864Z,47.93
2022-08-04T01:53:43.192Z,47.99
2022-08-04T01:56:11.501Z,47.91
2022-08-04T01:58:40.504Z,48.06
2022-08-04T02:01:10.184Z,48.11
2022-08-04T02:04:19.809Z,48.23
2022-08-04T02:06:46.421Z,48.54
2022-08-04T02:09:24.765Z,48.45
2022-08-04T02:12:05.761Z,48.46
2022-08-04T02:14:55.384Z,48.66
2022-08-04T02:17:45.106Z,48.64
2022-08-04T02:20:25.296Z,48.88
2022-08-04T02:23:05.576Z,49.36
2022-08-04T02:25:42.084Z,49.41
2022-08-04T02:28:33.358Z,48.86
2022-08-04T02:31:18.036Z,49.47
2022-08-04T02:33:46.889Z,48.85
2022-08-04T02:36:30.962Z,49.81
2022-08-04T02:39:01.658Z,49.54
2022-08-04T02:41:30.254Z,49.63
2022-08-04T02:44:02.346Z,49.73
2022-08-04T02:46:30.061Z,49.31
2022-08-04T02:48:57.362Z,50.04
2022-08-04T02:51:34.788Z,49.64
2022-08-04T02:54:04.021Z,49.95
2022-08-04T02:56:32.428Z,50.29
2022-08-04T02:59:05.701Z,49.93
2022-08-04T03:01:33.434Z,50.04
2022-08-04T03:04:25.111Z,49.99
2022-08-04T03:07:07.082Z,50.47
2022-08-04T03:09:56.232Z,50.15
2022-08-04T03:12:39.494Z,50.61
2022-08-04T03:15:24.612Z,50.17
2022-08-04T03:18:16.023Z,50.36
2022-08-04T03:20:56.552Z,50.83
2022-08-04T03:23:35.936Z,50.83
2022-08-04T03:26:20.778Z,50.71
2022-08-04T03:29:06.335Z,50.69
2022-08-04T03:31:57.114Z,51.33
2022-08-04T03:34:52.358Z,51.75
2022-08-04T03:37:54.364Z,50.80
2022-08-04T03:40:53.361Z,51.41
2022-08-04T03:43:58.776Z,51.15
2022-08-04T03:46:46.633Z,51.80
2022-08-04T03:49:52.043Z,51.42
2022-08-04T03:53:11.565Z,51.54
2022-08-04T03:56:03.030Z,51.41
2022-08-04T03:59:06.209Z,51.35
2022-08-04T04:02:02.936Z,51.57
2022-08-04T04:04:59.318Z,52.41
2022-08-04T04:07:44.925Z,51.90
2022-08-04T04:11:03.380Z,51.81
2022-08-04T04:14:00.148Z,52.24
2022-08-04T04:16:32.492Z,52.03
2022-08-04T04:19:13.777Z,51.55
2022-08-04T04:21:52.297Z,51.37
2022-08-04T04:24:46.828Z,51.43
2022-08-04T04:27:34.962Z,51.78
2022-08-04T04:30:05.126Z,51.42
2022-08-04T04:32:34.288Z,51.36
2022-08-04T04:35:33.748Z,51.10
2022-08-04T04:38:21.388Z,51.34
2022-08-04T04:41:05.677Z,51.06
2022-08-04T04:43:51.378Z,51.40
2022-08-04T04:46:38.150Z,51.11
2022-08-04T04:49:29.151Z,51.34
2022-08-04T04:52:13.294Z,52.34
2022-08-04T04:54:50.467Z,54.00
2022-08-04T04:57:53.499Z,52.96
2022-08-04T05:03:20.423Z,52.75
2022-08-04T05:06:00.304Z,53.32
2022-08-04T05:08:54.202Z,52.84
2022-08-04T05:11:48.227Z,52.80
2022-08-04T05:14:41.938Z,53.16
2022-08-04T05:17:27.930Z,53.34
2022-08-04T05:20:08.372Z,53.41
2022-08-04T05:22:59.137Z,54.09
2022-08-04T05:25:31.896Z,54.18
2022-08-04T05:28:15.170Z,53.56
2022-08-04T05:30:49.289Z,53.64
2022-08-04T05:33:26.007Z,53.59
2022-08-04T05:36:18.752Z,53.09
2022-08-04T05:38:49.487Z,51.53
2022-08-04T05:41:16.484Z,50.88
2022-08-04T05:43:45.208Z,50.50
2022-08-04T05:46:12.708Z,50.27
2022-08-04T05:48:41.524Z,50.50
2022-08-04T05:51:10.937Z,50.35
2022-08-04T05:53:44.237Z,49.43
2022-08-04T05:56:13.179Z,48.92
2022-08-04T05:58:41.518Z,48.83
2022-08-04T06:01:10.765Z,47.95
2022-08-04T06:03:38.580Z,47.99
2022-08-04T06:06:06.848Z,48.09
2022-08-04T06:08:33.697Z,46.57
2022-08-04T06:11:05.036Z,46.79
2022-08-04T06:13:48.701Z,46.63
2022-08-04T06:16:29.901Z,46.91
2022-08-04T06:20:00.116Z,46.53
2022-08-04T06:21:49.912Z,45.96
2022-08-04T06:24:20.387Z,45.73
2022-08-04T06:26:49.693Z,45.74
2022-08-04T06:29:30.722Z,45.35
2022-08-04T06:32:27.559Z,44.37
2022-08-04T06:34:47.460Z,45.63
2022-08-04T06:37:40.812Z,45.22
2022-08-04T06:40:29.918Z,44.26
2022-08-04T06:42:52.587Z,43.15
2022-08-04T06:45:20.624Z,43.16
2022-08-04T06:47:48.618Z,43.11
2022-08-04T06:51:30.650Z,43.26
2022-08-04T06:53:03.719Z,43.24
2022-08-04T06:55:31.802Z,42.74
2022-08-04T06:58:02.827Z,42.23
2022-08-04T07:00:32.164Z,41.81
2022-08-04T07:02:59.373Z,42.29
2022-08-04T07:05:26.415Z,41.22
2022-08-04T07:07:57.978Z,41.68
2022-08-04T07:10:29.078Z,40.24
2022-08-04T07:13:00.086Z,39.92
2022-08-04T07:15:27.579Z,40.39
2022-08-04T07:18:00.220Z,39.64
2022-08-04T07:20:34.632Z,40.30
2022-08-04T07:23:05.808Z,39.15
2022-08-04T07:25:59.718Z,39.62
2022-08-04T07:28:27.078Z,38.49
2022-08-04T07:30:57.384Z,37.20
2022-08-04T07:33:25.807Z,36.16
2022-08-04T07:36:04.592Z,36.18
2022-08-04T07:38:50.721Z,35.29
2022-08-04T07:41:39.392Z,34.65
2022-08-04T07:44:07.518Z,34.15
2022-08-04T07:46:34.433Z,34.01
2022-08-04T07:49:01.647Z,32.91
2022-08-04T07:51:30.665Z,32.71
2022-08-04T07:53:58.042Z,34.03
2022-08-04T07:56:28.545Z,33.19
2022-08-04T07:58:59.246Z,32.09
2022-08-04T08:01:26.881Z,31.60
2022-08-04T08:03:55.862Z,31.13
2022-08-04T08:06:32.988Z,31.49
2022-08-04T08:09:02.197Z,31.23
2022-08-04T08:12:36.636Z,31.08
2022-08-04T08:14:41.128Z,29.62
2022-08-04T08:17:07.624Z,29.95
2022-08-04T08:19:35.462Z,30.20
2022-08-04T08:22:02.365Z,29.55
2022-08-04T08:24:30.333Z,29.32
2022-08-04T08:26:57.493Z,28.57
2022-08-04T08:29:25.874Z,28.19
2022-08-04T08:31:57.302Z,28.22
2022-08-04T08:34:27.959Z,27.77
2022-08-04T08:37:04.735Z,28.25
2022-08-04T08:39:49.594Z,27.21
2022-08-04T08:42:34.732Z,27.38
2022-08-04T08:45:31.233Z,26.84
2022-08-04T08:48:16.276Z,25.46
2022-08-04T08:51:01.928Z,25.89
2022-08-04T08:53:59.436Z,26.19
2022-08-04T08:56:33.789Z,25.63
2022-08-04T08:59:03.203Z,25.50
2022-08-04T09:01:57.221Z,24.98
2022-08-04T09:04:40.717Z,24.80
2022-08-04T09:07:43.022Z,25.00
2022-08-04T09:10:20.384Z,24.39
2022-08-04T09:12:57.595Z,24.23
2022-08-04T09:15:36.243Z,23.84
2022-08-04T09:18:09.311Z,23.94
2022-08-04T09:20:53.391Z,24.21
2022-08-04T09:23:49.468Z,23.82
2022-08-04T09:26:27.508Z,23.49
2022-08-04T09:29:18.262Z,24.36
2022-08-04T09:32:07.199Z,23.50
2022-08-04T09:34:46.348Z,23.81
2022-08-04T09:37:48.533Z,22.96
2022-08-04T09:40:31.425Z,23.05
2022-08-04T09:43:57.065Z,22.89
2022-08-04T09:46:25.134Z,22.36
2022-08-04T09:49:07.504Z,21.89
2022-08-04T09:51:57.443Z,22.07
2022-08-04T09:54:49.272Z,21.83
2022-08-04T09:57:21.653Z,22.07
2022-08-04T10:00:10.087Z,22.14
2022-08-04T10:02:43.961Z,22.29
2022-08-04T10:05:16.268Z,22.62
2022-08-04T10:08:16.198Z,22.24
2022-08-04T10:10:55.268Z,21.88
2022-08-04T10:13:32.614Z,21.61
2022-08-04T10:16:36.748Z,20.74
2022-08-04T10:19:12.266Z,21.57
2022-08-04T10:22:27.086Z,20.94
2022-08-04T10:25:05.585Z,21.13
2022-08-04T10:27:57.639Z,20.67
2022-08-04T10:30:26.076Z,20.82
2022-08-04T10:32:58.553Z,20.74
2022-08-04T10:35:27.884Z,19.99
2022-08-04T10:38:13.716Z,20.39
2022-08-04T10:40:49.269Z,20.24
2022-08-04T10:43:29.393Z,20.71
2022-08-04T10:45:59.914Z,20.73
2022-08-04T10:48:41.256Z,20.45
2022-08-04T10:51:58.815Z,19.69
2022-08-04T10:54:54.290Z,19.94
2022-08-04T10:57:29.475Z,19.88
2022-08-04T11:00:19.814Z,20.05
2022-08-04T11:02:52.654Z,19.54
2022-08-04T11:05:44.675Z,19.87
2022-08-04T11:08:27.043Z,19.66
2022-08-04T11:11:05.661Z,19.93
2022-08-04T11:13:45.045Z,20.01
2022-08-04T11:16:36.648Z,20.02
2022-08-04T11:19:45.197Z,19.86
2022-08-04T11:22:23.270Z,19.69
2022-08-04T11:25:07.359Z,19.42
2022-08-04T11:28:09.624Z,19.34
2022-08-04T11:31:03.628Z,19.68
2022-08-04T11:33:45.733Z,19.54
2022-08-04T11:36:34.672Z,19.32
2022-08-04T11:39:14.037Z,19.64
2022-08-04T11:41:58.171Z,19.49
2022-08-04T11:44:59.916Z,19.47
2022-08-04T11:47:53.021Z,19.34
2022-08-04T11:50:48.226Z,19.13
2022-08-04T11:53:20.929Z,18.25
2022-08-04T11:56:07.097Z,18.90
2022-08-04T11:58:35.588Z,17.93
2022-08-04T12:01:25.614Z,18.60
2022-08-04T12:04:17.228Z,18.62
2022-08-04T12:07:30.999Z,18.42
2022-08-04T12:10:37.991Z,18.23
2022-08-04T12:13:28.519Z,18.25
2022-08-04T12:16:10.782Z,17.88
2022-08-04T12:18:53.345Z,18.13
2022-08-04T12:21:29.442Z,18.13
2022-08-04T12:24:05.919Z,17.91
2022-08-04T12:26:42.739Z,18.06
2022-08-04T12:29:11.787Z,17.72
2022-08-04T12:31:51.369Z,17.47
2022-08-04T12:34:32.134Z,17.53
2022-08-04T12:37:09.236Z,17.68
2022-08-04T12:40:21.416Z,17.38
2022-08-04T12:43:02.359Z,16.97
2022-08-04T12:45:30.241Z,17.44
2022-08-04T12:47:59.999Z,17.37
2022-08-04T12:50:27.126Z,16.73
2022-08-04T12:53:02.624Z,16.79
2022-08-04T12:55:31.831Z,16.86
2022-08-04T12:58:01.690Z,16.81
2022-08-04T13:00:39.705Z,16.73
2022-08-04T13:03:11.550Z,16.17
2022-08-04T13:05:41.595Z,16.01
2022-08-04T13:08:11.761Z,15.97
2022-08-04T13:10:41.322Z,16.18
2022-08-04T13:13:16.019Z,15.64
2022-08-04T13:15:47.308Z,15.64
2022-08-04T13:18:28.962Z,15.72
2022-08-04T13:21:16.861Z,15.89
2022-08-04T13:24:10.252Z,15.92
2022-08-04T13:26:57.399Z,16.24
2022-08-04T13:30:00.784Z,16.55
2022-08-04T13:32:23.077Z,16.58
2022-08-04T13:34:53.881Z,16.53
2022-08-04T13:37:26.902Z,16.17
2022-08-04T13:39:56.158Z,16.25
2022-08-04T13:42:25.986Z,16.04
2022-08-04T13:45:01.186Z,16.40
2022-08-04T13:47:37.207Z,16.19
2022-08-04T13:50:17.866Z,16.55
2022-08-04T13:52:47.215Z,16.47
2022-08-04T13:55:40.987Z,15.88
2022-08-04T13:58:11.249Z,16.32
2022-08-04T14:01:03.744Z,16.15
2022-08-04T14:03:53.888Z,16.36
2022-08-04T14:06:25.690Z,16.24
2022-08-04T14:09:10.931Z,16.27
2022-08-04T14:12:09.879Z,16.38
2022-08-04T14:14:31.279Z,16.12
2022-08-04T14:17:05.914Z,16.39
2022-08-04T14:20:00.297Z,16.33
2022-08-04T14:22:26.967Z,16.17
2022-08-04T14:25:16.087Z,16.04
2022-08-04T14:27:54.722Z,16.01
2022-08-04T14:30:26.275Z,15.97
2022-08-04T14:34:04.285Z,15.87
2022-08-04T14:36:01.699Z,15.90
2022-08-04T14:38:50.052Z,16.13
2022-08-04T14:41:19.664Z,16.07
2022-08-04T14:43:54.922Z,15.47
2022-08-04T14:46:22.824Z,16.49
2022-08-04T14:49:15.946Z,16.27
2022-08-04T14:52:01.609Z,16.37
2022-08-04T14:54:35.420Z,16.48
2022-08-04T14:57:06.001Z,16.20
2022-08-04T15:00:01.730Z,16.31
2022-08-04T15:02:40.198Z,16.40
2022-08-04T15:05:55.366Z,16.14
2022-08-04T15:08:02.053Z,16.18
2022-08-04T15:11:49.597Z,16.24
2022-08-04T15:17:30.241Z,16.02
2022-08-04T15:26:37.856Z,14.61
2022-08-04T15:29:59.147Z,13.30
2022-08-04T15:36:32.138Z,12.58
2022-08-04T15:39:55.490Z,11.45
2022-08-04T15:42:32.840Z,10.33
2022-08-04T15:46:02.392Z,9.56
2022-08-04T15:48:17.432Z,9.45
2022-08-04T15:50:56.047Z,9.69
2022-08-04T15:53:53.497Z,8.73
2022-08-04T15:56:24.388Z,8.73
2022-08-04T15:58:57.216Z,8.52
2022-08-04T16:01:24.840Z,7.88
2022-08-04T16:03:54.561Z,7.33
2022-08-04T16:06:28.923Z,7.55
2022-08-04T16:09:01.789Z,7.80
2022-08-04T16:11:37.115Z,7.61
2022-08-04T16:14:07.766Z,7.17
2022-08-04T16:16:41.029Z,7.48
2022-08-04T16:19:13.840Z,7.53
2022-08-04T16:21:54.664Z,7.56
2022-08-04T16:24:55.319Z,8.05
2022-08-04T16:27:39.210Z,7.79
2022-08-04T16:30:13.589Z,7.75
2022-08-04T16:32:43.704Z,8.27
2022-08-04T16:35:24.208Z,9.43
2022-08-04T16:37:54.970Z,10.65
2022-08-04T16:40:36.460Z,11.43
2022-08-04T16:43:10.201Z,12.32
2022-08-04T16:45:47.672Z,13.03
2022-08-04T16:48:22.504Z,13.36
2022-08-04T16:51:12.215Z,13.92
2022-08-04T16:53:57.945Z,15.13
2022-08-04T16:56:34.478Z,14.30
2022-08-04T16:59:13.402Z,14.84
2022-08-04T17:01:49.111Z,15.95
2022-08-04T17:04:18.509Z,15.70
2022-08-04T17:06:49.572Z,15.37
2022-08-04T17:09:22.399Z,15.28
2022-08-04T17:11:55.707Z,15.61
2022-08-04T17:14:50.779Z,16.34
2022-08-04T17:17:24.749Z,16.48
2022-08-04T17:20:13.629Z,16.39
2022-08-04T17:22:40.984Z,17.74
2022-08-04T17:25:08.104Z,16.42
2022-08-04T17:28:09.180Z,18.05
2022-08-04T17:30:27.686Z,17.84
2022-08-04T17:32:56.142Z,18.29
2022-08-04T17:35:23.153Z,18.24
2022-08-04T17:37:52.280Z,18.67
2022-08-04T17:40:25.675Z,18.96
2022-08-04T17:44:03.506Z,18.86
2022-08-04T17:46:18.920Z,19.56
2022-08-04T17:49:18.375Z,19.93
2022-08-04T17:52:04.179Z,19.63
2022-08-04T17:54:37.248Z,19.73
2022-08-04T17:57:24.931Z,19.80
2022-08-04T17:59:56.291Z,20.45
2022-08-04T18:02:31.891Z,20.53
2022-08-04T18:05:11.867Z,20.28
2022-08-04T18:08:35.500Z,20.37
2022-08-04T18:10:55.476Z,21.07
2022-08-04T18:13:42.637Z,20.81
2022-08-04T18:16:22.396Z,21.07
2022-08-04T18:19:10.905Z,22.11
2022-08-04T18:21:46.374Z,21.82
2022-08-04T18:24:34.482Z,21.45
2022-08-04T18:30:32.458Z,22.55
2022-08-04T18:32:57.284Z,22.18
2022-08-04T18:36:31.219Z,22.71
2022-08-04T18:38:23.789Z,23.06
2022-08-04T18:40:54.212Z,22.57
2022-08-04T18:43:28.472Z,23.59
2022-08-04T18:45:57.737Z,23.54
2022-08-04T18:48:36.153Z,23.34
2022-08-04T18:51:10.660Z,24.00
2022-08-04T18:53:58.416Z,23.83
2022-08-04T18:56:29.667Z,24.51
2022-08-04T18:59:03.826Z,25.07
2022-08-04T19:02:13.575Z,24.62
2022-08-04T19:04:33.814Z,24.86
2022-08-04T19:07:33.811Z,24.88
2022-08-04T19:09:58.131Z,24.99
2022-08-04T19:12:26.816Z,25.27
2022-08-04T19:15:10.240Z,25.33
2022-08-04T19:17:53.490Z,25.59
2022-08-04T19:20:28.279Z,26.17
2022-08-04T19:24:26.958Z,26.54
2022-08-04T19:26:01.912Z,26.21
2022-08-04T19:28:33.949Z,26.84
2022-08-04T19:31:10.096Z,27.06
2022-08-04T19:33:58.662Z,26.94
2022-08-04T19:36:37.196Z,27.29
2022-08-04T19:39:11.854Z,28.22
2022-08-04T19:42:05.831Z,28.02
2022-08-04T19:44:30.550Z,27.86
2022-08-04T19:47:00.863Z,28.17
2022-08-04T19:50:05.314Z,28.37
2022-08-04T19:52:34.205Z,28.46
2022-08-04T19:55:10.025Z,28.28
2022-08-04T19:57:41.454Z,28.97
2022-08-04T20:00:10.115Z,28.92
2022-08-04T20:02:40.086Z,29.20
2022-08-04T20:05:08.888Z,29.05
2022-08-04T20:07:38.661Z,29.26
2022-08-04T20:10:12.968Z,29.57
2022-08-04T20:12:42.069Z,29.68
2022-08-04T20:15:12.478Z,29.82
2022-08-04T20:17:55.826Z,29.92
2022-08-04T20:20:31.592Z,30.77
2022-08-04T20:22:58.464Z,31.25
2022-08-04T20:25:36.400Z,31.95
2022-08-04T20:28:03.842Z,31.00
2022-08-04T20:30:55.717Z,32.21
2022-08-04T20:33:22.946Z,31.55
2022-08-04T20:36:05.546Z,31.41
2022-08-04T20:38:34.198Z,31.69
2022-08-04T20:41:01.944Z,31.88
2022-08-04T20:43:31.373Z,32.07
2022-08-04T20:45:59.373Z,31.76
2022-08-04T20:48:33.564Z,33.10
2022-08-04T20:51:00.491Z,31.79
2022-08-04T20:53:32.566Z,33.09
2022-08-04T20:56:19.333Z,32.11
2022-08-04T20:58:57.805Z,32.75
2022-08-04T21:01:27.250Z,33.23
2022-08-04T21:04:27.200Z,32.47
2022-08-04T21:06:57.358Z,32.79
2022-08-04T21:09:37.106Z,32.65
2022-08-04T21:12:06.375Z,32.77
2022-08-04T21:14:33.626Z,32.75
2022-08-04T21:17:02.954Z,32.95
2022-08-04T21:19:33.142Z,32.97
2022-08-04T21:22:06.675Z,33.27
2022-08-04T21:24:37.689Z,33.18
2022-08-04T21:27:06.763Z,33.37
2022-08-04T21:29:36.925Z,33.88
2022-08-04T21:32:05.970Z,33.78
2022-08-04T21:34:38.203Z,33.38
2022-08-04T21:37:07.018Z,33.92
2022-08-04T21:39:50.265Z,34.73
2022-08-04T21:42:28.845Z,34.13
2022-08-04T21:44:56.622Z,33.87
2022-08-04T21:47:23.891Z,34.03
2022-08-04T21:49:56.590Z,34.37
2022-08-04T21:52:24.270Z,34.49
2022-08-04T21:54:56.873Z,34.72
2022-08-04T21:57:25.266Z,34.75
2022-08-04T21:59:52.650Z,34.64
2022-08-04T22:02:19.438Z,35.25
2022-08-04T22:04:48.146Z,34.82
2022-08-04T22:07:14.859Z,35.12
2022-08-04T22:10:00.547Z,35.72
2022-08-04T22:12:29.938Z,35.32
2022-08-04T22:14:59.179Z,35.45
2022-08-04T22:17:26.985Z,35.91
2022-08-04T22:20:02.387Z,35.88
2022-08-04T22:22:31.793Z,35.88
2022-08-04T22:25:12.455Z,36.38
2022-08-04T22:28:01.425Z,36.17
2022-08-04T22:30:36.532Z,36.01
2022-08-04T22:33:07.378Z,36.55
2022-08-04T22:35:49.417Z,36.61
2022-08-04T22:38:24.282Z,36.84
2022-08-04T22:41:01.204Z,36.87
2022-08-04T22:43:33.812Z,36.79
2022-08-04T22:46:05.185Z,36.94
2022-08-04T22:48:33.782Z,37.13
2022-08-04T22:51:02.757Z,37.53
2022-08-04T22:53:30.514Z,37.65
2022-08-04T22:56:10.033Z,37.53
2022-08-04T22:58:45.525Z,37.35
2022-08-04T23:01:18.092Z,38.13
2022-08-04T23:03:55.149Z,37.90
2022-08-04T23:06:25.437Z,38.30
2022-08-04T23:08:52.560Z,38.69
2022-08-04T23:11:19.423Z,38.18
2022-08-04T23:13:45.929Z,38.76
2022-08-04T23:16:14.155Z,37.97
2022-08-04T23:18:42.058Z,39.01
2022-08-04T23:21:11.751Z,39.77
2022-08-04T23:23:45.394Z,38.69
2022-08-04T23:26:27.361Z,39.52
2022-08-04T23:28:54.949Z,40.18
2022-08-04T23:31:21.400Z,39.79
2022-08-04T23:33:49.389Z,40.44
2022-08-04T23:36:17.654Z,39.69
2022-08-04T23:38:44.220Z,39.72
2022-08-04T23:41:17.257Z,40.46
2022-08-04T23:43:54.899Z,39.83
2022-08-04T23:46:21.728Z,40.31
2022-08-04T23:48:48.863Z,39.74
2022-08-04T23:51:15.786Z,39.71
2022-08-04T23:54:02.607Z,40.12
2022-08-04T23:56:32.859Z,40.21
2022-08-04T23:59:03.375Z,40.15
